Ellendale, Pennsylvania
Current Conditions -  °F | °C
As of 3:56 AM on Wednesday 28 Jan 2015 (Local Time) from KCXY Reporting Station
Clear Clear  
Wind Chill:   Ceiling: Unl
Heat Index: 18°   Visibility: 10mi
Dew Point:   Wind: 8mph
Humidity: 50%   Direction: 270°W
Pressure: 30.07"   Gusts: NA
Location:  40.4076°N, 76.8769°W
Report Text: KCXY 280856Z AUTO 27007KT 10SM CLR M08/M17 A3007 RMK AO2 SLP187 T10781167 51015
Loading
Personal Weather Stations






























Interactive Weather Map New forecast layout! Learn more

10-Day Weather Forecast

Advertisements
Track Severe Weather on mobile